Balasiha, Russia
Current Conditions -  °F | °C
As of 11:00 PM on Tuesday 21 Oct 2014 (Local Time) from UUEE Reporting Station
Overcast Overcast  
Wind Chill: 14°   Ceiling: 1800
Heat Index: 25°   Visibility: 6mi
Dew Point: 19°   Wind: 11mph
Humidity: 80%   Direction: 330°NNW
Pressure: 29.62"   Gusts: NA
Location:  55.8°N, 37.95°E
Report Text: UUEE 212000Z 33005MPS 9999 OVC018 M04/M07 Q1003 2512015775////// NOSIG
Loading
Personal Weather Stations






























Interactive Weather Map
Tropical Storm Tracking
New forecast layout! Learn more

10-Day Weather Forecast

Advertisements
Track Severe Weather on mobile